sensor_id;sensor_type;location;lat;lon;timestamp;P1;durP1;ratioP1;P2;durP2;ratioP2
8861;SDS011;4799;50.996;4.754;2023-02-28T00:00:50;9.87;;;8.07;;
8861;SDS011;4799;50.996;4.754;2023-02-28T00:03:15;9.17;;;8.27;;
8861;SDS011;4799;50.996;4.754;2023-02-28T00:05:41;11.93;;;8.07;;
8861;SDS011;4799;50.996;4.754;2023-02-28T00:08:07;8.40;;;7.47;;
8861;SDS011;4799;50.996;4.754;2023-02-28T00:10:33;9.27;;;7.90;;
8861;SDS011;4799;50.996;4.754;2023-02-28T00:13:00;9.87;;;8.70;;
8861;SDS011;4799;50.996;4.754;2023-02-28T00:15:31;9.60;;;7.97;;
8861;SDS011;4799;50.996;4.754;2023-02-28T00:17:57;8.47;;;7.67;;
8861;SDS011;4799;50.996;4.754;2023-02-28T00:20:23;9.30;;;7.83;;
8861;SDS011;4799;50.996;4.754;2023-02-28T00:22:50;9.23;;;7.80;;
8861;SDS011;4799;50.996;4.754;2023-02-28T00:25:18;10.13;;;8.60;;
8861;SDS011;4799;50.996;4.754;2023-02-28T00:27:46;10.13;;;8.00;;
8861;SDS011;4799;50.996;4.754;2023-02-28T00:30:13;9.47;;;8.27;;
8861;SDS011;4799;50.996;4.754;2023-02-28T00:32:41;8.83;;;7.93;;
8861;SDS011;4799;50.996;4.754;2023-02-28T00:35:07;8.80;;;7.90;;
8861;SDS011;4799;50.996;4.754;2023-02-28T00:37:33;10.57;;;8.10;;
8861;SDS011;4799;50.996;4.754;2023-02-28T00:39:59;9.77;;;8.17;;
8861;SDS011;4799;50.996;4.754;2023-02-28T00:42:25;9.33;;;8.33;;
8861;SDS011;4799;50.996;4.754;2023-02-28T00:44:51;9.53;;;8.63;;
8861;SDS011;4799;50.996;4.754;2023-02-28T00:47:17;9.03;;;8.30;;
8861;SDS011;4799;50.996;4.754;2023-02-28T00:49:42;9.67;;;8.77;;
8861;SDS011;4799;50.996;4.754;2023-02-28T00:52:08;8.80;;;8.00;;
8861;SDS011;4799;50.996;4.754;2023-02-28T00:54:34;9.70;;;8.80;;
8861;SDS011;4799;50.996;4.754;2023-02-28T00:57:00;10.93;;;8.80;;
8861;SDS011;4799;50.996;4.754;2023-02-28T00:59:26;10.03;;;9.13;;
8861;SDS011;4799;50.996;4.754;2023-02-28T01:01:51;9.17;;;8.27;;
8861;SDS011;4799;50.996;4.754;2023-02-28T01:04:17;10.07;;;9.07;;
8861;SDS011;4799;50.996;4.754;2023-02-28T01:06:43;10.13;;;9.13;;
8861;SDS011;4799;50.996;4.754;2023-02-28T01:09:09;10.07;;;9.00;;
8861;SDS011;4799;50.996;4.754;2023-02-28T01:11:35;9.73;;;8.83;;
8861;SDS011;4799;50.996;4.754;2023-02-28T01:14:02;10.50;;;9.10;;
8861;SDS011;4799;50.996;4.754;2023-02-28T01:16:29;10.37;;;9.30;;
8861;SDS011;4799;50.996;4.754;2023-02-28T01:18:55;10.37;;;9.37;;
8861;SDS011;4799;50.996;4.754;2023-02-28T01:21:21;10.30;;;9.27;;
8861;SDS011;4799;50.996;4.754;2023-02-28T01:23:47;9.83;;;8.93;;
8861;SDS011;4799;50.996;4.754;2023-02-28T01:26:15;10.30;;;9.30;;
8861;SDS011;4799;50.996;4.754;2023-02-28T01:28:45;11.17;;;9.23;;
8861;SDS011;4799;50.996;4.754;2023-02-28T01:31:12;11.77;;;10.57;;
8861;SDS011;4799;50.996;4.754;2023-02-28T01:33:38;10.80;;;9.80;;
8861;SDS011;4799;50.996;4.754;2023-02-28T01:36:05;10.40;;;9.30;;
8861;SDS011;4799;50.996;4.754;2023-02-28T01:38:36;11.63;;;10.47;;
8861;SDS011;4799;50.996;4.754;2023-02-28T01:41:02;11.00;;;10.00;;
8861;SDS011;4799;50.996;4.754;2023-02-28T01:43:29;11.70;;;10.60;;
8861;SDS011;4799;50.996;4.754;2023-02-28T01:46:07;11.83;;;10.63;;
8861;SDS011;4799;50.996;4.754;2023-02-28T01:48:35;11.93;;;10.83;;
8861;SDS011;4799;50.996;4.754;2023-02-28T01:51:14;11.73;;;10.53;;
8861;SDS011;4799;50.996;4.754;2023-02-28T01:53:45;12.07;;;10.87;;
8861;SDS011;4799;50.996;4.754;2023-02-28T01:56:17;12.17;;;10.97;;
8861;SDS011;4799;50.996;4.754;2023-02-28T01:58:48;12.53;;;11.33;;
8861;SDS011;4799;50.996;4.754;2023-02-28T02:01:18;14.13;;;12.60;;
8861;SDS011;4799;50.996;4.754;2023-02-28T02:03:49;12.67;;;11.33;;
8861;SDS011;4799;50.996;4.754;2023-02-28T02:06:24;13.43;;;12.03;;
8861;SDS011;4799;50.996;4.754;2023-02-28T02:08:54;13.40;;;12.10;;
8861;SDS011;4799;50.996;4.754;2023-02-28T02:11:20;13.53;;;12.30;;
8861;SDS011;4799;50.996;4.754;2023-02-28T02:13:55;13.97;;;12.47;;
8861;SDS011;4799;50.996;4.754;2023-02-28T02:40:35;16.27;;;13.70;;
8861;SDS011;4799;50.996;4.754;2023-02-28T02:43:29;14.63;;;13.17;;
8861;SDS011;4799;50.996;4.754;2023-02-28T02:46:12;14.70;;;13.33;;
8861;SDS011;4799;50.996;4.754;2023-02-28T02:48:44;15.20;;;13.60;;
8861;SDS011;4799;50.996;4.754;2023-02-28T02:51:13;15.83;;;14.23;;
8861;SDS011;4799;50.996;4.754;2023-02-28T02:53:44;14.57;;;13.07;;
8861;SDS011;4799;50.996;4.754;2023-02-28T02:56:31;15.73;;;14.17;;
8861;SDS011;4799;50.996;4.754;2023-02-28T02:59:00;16.57;;;14.80;;
8861;SDS011;4799;50.996;4.754;2023-02-28T03:01:32;16.13;;;14.53;;
8861;SDS011;4799;50.996;4.754;2023-02-28T03:04:10;15.77;;;14.27;;
8861;SDS011;4799;50.996;4.754;2023-02-28T03:06:41;16.57;;;14.87;;
8861;SDS011;4799;50.996;4.754;2023-02-28T03:09:07;17.00;;;15.40;;
8861;SDS011;4799;50.996;4.754;2023-02-28T03:11:32;17.47;;;15.70;;
8861;SDS011;4799;50.996;4.754;2023-02-28T03:30:52;17.30;;;15.70;;
8861;SDS011;4799;50.996;4.754;2023-02-28T03:35:55;17.33;;;15.63;;
8861;SDS011;4799;50.996;4.754;2023-02-28T03:38:46;18.27;;;16.40;;
8861;SDS011;4799;50.996;4.754;2023-02-28T03:41:17;16.93;;;15.27;;
8861;SDS011;4799;50.996;4.754;2023-02-28T03:43:53;18.77;;;16.83;;
8861;SDS011;4799;50.996;4.754;2023-02-28T03:46:27;18.63;;;16.73;;
8861;SDS011;4799;50.996;4.754;2023-02-28T03:49:00;18.33;;;16.57;;
8861;SDS011;4799;50.996;4.754;2023-02-28T03:51:31;18.17;;;16.37;;
8861;SDS011;4799;50.996;4.754;2023-02-28T03:53:59;18.73;;;16.90;;
8861;SDS011;4799;50.996;4.754;2023-02-28T03:56:38;18.67;;;16.47;;
8861;SDS011;4799;50.996;4.754;2023-02-28T03:59:16;19.10;;;17.03;;
8861;SDS011;4799;50.996;4.754;2023-02-28T04:01:46;18.37;;;16.57;;
8861;SDS011;4799;50.996;4.754;2023-02-28T04:04:13;17.07;;;15.40;;
8861;SDS011;4799;50.996;4.754;2023-02-28T04:06:41;17.00;;;15.30;;
8861;SDS011;4799;50.996;4.754;2023-02-28T04:09:09;19.27;;;16.37;;
8861;SDS011;4799;50.996;4.754;2023-02-28T04:11:37;18.57;;;16.57;;
8861;SDS011;4799;50.996;4.754;2023-02-28T04:14:08;18.10;;;16.20;;
8861;SDS011;4799;50.996;4.754;2023-02-28T04:16:35;17.77;;;15.87;;
8861;SDS011;4799;50.996;4.754;2023-02-28T04:19:03;16.93;;;15.23;;
8861;SDS011;4799;50.996;4.754;2023-02-28T04:21:35;17.73;;;15.93;;
8861;SDS011;4799;50.996;4.754;2023-02-28T04:24:04;18.03;;;16.20;;
8861;SDS011;4799;50.996;4.754;2023-02-28T04:26:31;17.87;;;16.07;;
8861;SDS011;4799;50.996;4.754;2023-02-28T04:29:01;17.70;;;16.00;;
8861;SDS011;4799;50.996;4.754;2023-02-28T04:31:28;20.63;;;17.83;;
8861;SDS011;4799;50.996;4.754;2023-02-28T04:33:54;18.90;;;17.00;;
8861;SDS011;4799;50.996;4.754;2023-02-28T04:36:20;18.57;;;16.73;;
8861;SDS011;4799;50.996;4.754;2023-02-28T04:38:47;18.33;;;16.43;;
8861;SDS011;4799;50.996;4.754;2023-02-28T04:41:13;18.13;;;16.47;;
8861;SDS011;4799;50.996;4.754;2023-02-28T04:43:40;17.77;;;16.07;;
8861;SDS011;4799;50.996;4.754;2023-02-28T04:46:06;17.73;;;15.97;;
8861;SDS011;4799;50.996;4.754;2023-02-28T04:48:33;18.03;;;16.23;;
8861;SDS011;4799;50.996;4.754;2023-02-28T04:51:03;17.57;;;15.97;;
8861;SDS011;4799;50.996;4.754;2023-02-28T04:53:35;17.30;;;15.57;;
8861;SDS011;4799;50.996;4.754;2023-02-28T04:56:03;17.10;;;15.40;;
8861;SDS011;4799;50.996;4.754;2023-02-28T04:58:30;17.83;;;16.10;;
8861;SDS011;4799;50.996;4.754;2023-02-28T05:01:01;16.50;;;14.80;;
8861;SDS011;4799;50.996;4.754;2023-02-28T05:03:28;16.90;;;15.20;;
8861;SDS011;4799;50.996;4.754;2023-02-28T05:05:54;16.57;;;14.97;;
8861;SDS011;4799;50.996;4.754;2023-02-28T05:08:19;17.30;;;15.33;;
8861;SDS011;4799;50.996;4.754;2023-02-28T05:10:45;16.90;;;15.30;;
8861;SDS011;4799;50.996;4.754;2023-02-28T05:13:11;15.80;;;14.20;;
8861;SDS011;4799;50.996;4.754;2023-02-28T05:15:37;15.70;;;14.17;;
8861;SDS011;4799;50.996;4.754;2023-02-28T05:18:03;16.07;;;14.57;;
8861;SDS011;4799;50.996;4.754;2023-02-28T05:20:29;16.03;;;14.40;;
8861;SDS011;4799;50.996;4.754;2023-02-28T05:22:55;16.30;;;14.70;;
8861;SDS011;4799;50.996;4.754;2023-02-28T05:25:23;16.07;;;14.47;;
8861;SDS011;4799;50.996;4.754;2023-02-28T05:27:49;15.30;;;13.80;;
8861;SDS011;4799;50.996;4.754;2023-02-28T05:30:15;15.83;;;14.23;;
8861;SDS011;4799;50.996;4.754;2023-02-28T05:32:41;14.57;;;13.03;;
8861;SDS011;4799;50.996;4.754;2023-02-28T05:35:08;14.77;;;13.23;;
8861;SDS011;4799;50.996;4.754;2023-02-28T05:37:35;15.47;;;13.97;;
8861;SDS011;4799;50.996;4.754;2023-02-28T05:40:01;14.87;;;13.37;;
8861;SDS011;4799;50.996;4.754;2023-02-28T05:42:31;15.50;;;14.00;;
8861;SDS011;4799;50.996;4.754;2023-02-28T05:44:57;15.40;;;13.97;;
8861;SDS011;4799;50.996;4.754;2023-02-28T05:47:22;15.57;;;13.60;;
8861;SDS011;4799;50.996;4.754;2023-02-28T05:49:48;15.00;;;13.50;;
8861;SDS011;4799;50.996;4.754;2023-02-28T05:52:14;14.40;;;13.00;;
8861;SDS011;4799;50.996;4.754;2023-02-28T05:54:40;15.00;;;13.33;;
8861;SDS011;4799;50.996;4.754;2023-02-28T05:57:06;14.93;;;13.37;;
8861;SDS011;4799;50.996;4.754;2023-02-28T05:59:32;14.40;;;13.10;;
8861;SDS011;4799;50.996;4.754;2023-02-28T06:01:58;13.30;;;12.03;;
8861;SDS011;4799;50.996;4.754;2023-02-28T06:04:24;13.33;;;12.13;;
8861;SDS011;4799;50.996;4.754;2023-02-28T06:06:50;13.73;;;12.43;;
8861;SDS011;4799;50.996;4.754;2023-02-28T06:09:16;14.37;;;12.80;;
8861;SDS011;4799;50.996;4.754;2023-02-28T06:11:44;13.40;;;12.10;;
8861;SDS011;4799;50.996;4.754;2023-02-28T06:14:16;13.27;;;11.77;;
8861;SDS011;4799;50.996;4.754;2023-02-28T06:16:43;12.70;;;11.50;;
8861;SDS011;4799;50.996;4.754;2023-02-28T06:19:09;14.13;;;12.47;;
8861;SDS011;4799;50.996;4.754;2023-02-28T06:21:35;13.43;;;12.03;;
8861;SDS011;4799;50.996;4.754;2023-02-28T06:24:02;13.03;;;11.73;;
8861;SDS011;4799;50.996;4.754;2023-02-28T06:26:28;13.20;;;11.90;;
8861;SDS011;4799;50.996;4.754;2023-02-28T06:28:55;13.13;;;11.90;;
8861;SDS011;4799;50.996;4.754;2023-02-28T06:31:21;13.10;;;11.90;;
8861;SDS011;4799;50.996;4.754;2023-02-28T06:33:47;14.33;;;12.93;;
8861;SDS011;4799;50.996;4.754;2023-02-28T06:36:13;13.90;;;12.50;;
8861;SDS011;4799;50.996;4.754;2023-02-28T06:38:40;13.97;;;12.43;;
8861;SDS011;4799;50.996;4.754;2023-02-28T06:41:06;14.40;;;12.90;;
8861;SDS011;4799;50.996;4.754;2023-02-28T06:43:34;13.17;;;11.87;;
8861;SDS011;4799;50.996;4.754;2023-02-28T06:46:03;12.93;;;11.47;;
8861;SDS011;4799;50.996;4.754;2023-02-28T06:48:30;13.33;;;11.97;;
8861;SDS011;4799;50.996;4.754;2023-02-28T06:51:03;13.47;;;11.80;;
8861;SDS011;4799;50.996;4.754;2023-02-28T06:53:31;13.47;;;12.07;;
8861;SDS011;4799;50.996;4.754;2023-02-28T06:55:57;12.87;;;11.50;;
8861;SDS011;4799;50.996;4.754;2023-02-28T06:58:23;13.17;;;11.90;;
8861;SDS011;4799;50.996;4.754;2023-02-28T07:00:50;13.20;;;11.90;;
8861;SDS011;4799;50.996;4.754;2023-02-28T07:03:17;13.17;;;11.80;;
8861;SDS011;4799;50.996;4.754;2023-02-28T07:05:43;13.80;;;12.50;;
8861;SDS011;4799;50.996;4.754;2023-02-28T07:08:09;13.43;;;12.13;;
8861;SDS011;4799;50.996;4.754;2023-02-28T07:10:38;13.60;;;12.30;;
8861;SDS011;4799;50.996;4.754;2023-02-28T07:13:04;13.47;;;12.07;;
8861;SDS011;4799;50.996;4.754;2023-02-28T07:15:31;13.80;;;12.50;;
8861;SDS011;4799;50.996;4.754;2023-02-28T07:17:57;13.33;;;12.13;;
8861;SDS011;4799;50.996;4.754;2023-02-28T07:20:23;15.50;;;11.37;;
8861;SDS011;4799;50.996;4.754;2023-02-28T07:22:50;12.37;;;11.27;;
8861;SDS011;4799;50.996;4.754;2023-02-28T07:25:25;11.93;;;10.63;;
8861;SDS011;4799;50.996;4.754;2023-02-28T07:27:51;12.37;;;11.07;;
8861;SDS011;4799;50.996;4.754;2023-02-28T07:30:17;11.87;;;10.70;;
8861;SDS011;4799;50.996;4.754;2023-02-28T07:32:43;11.67;;;10.53;;
8861;SDS011;4799;50.996;4.754;2023-02-28T07:35:09;11.73;;;10.57;;
8861;SDS011;4799;50.996;4.754;2023-02-28T07:37:35;11.13;;;10.00;;
8861;SDS011;4799;50.996;4.754;2023-02-28T07:40:05;11.60;;;9.97;;
8861;SDS011;4799;50.996;4.754;2023-02-28T07:42:36;10.23;;;9.07;;
8861;SDS011;4799;50.996;4.754;2023-02-28T07:45:03;10.17;;;9.07;;
8861;SDS011;4799;50.996;4.754;2023-02-28T07:47:30;11.00;;;9.43;;
8861;SDS011;4799;50.996;4.754;2023-02-28T07:49:56;9.73;;;8.53;;
8861;SDS011;4799;50.996;4.754;2023-02-28T07:52:23;9.70;;;8.70;;
8861;SDS011;4799;50.996;4.754;2023-02-28T07:54:49;9.30;;;8.40;;
8861;SDS011;4799;50.996;4.754;2023-02-28T07:57:15;9.80;;;8.83;;
8861;SDS011;4799;50.996;4.754;2023-02-28T07:59:42;9.13;;;8.33;;
8861;SDS011;4799;50.996;4.754;2023-02-28T08:02:14;9.40;;;8.50;;
8861;SDS011;4799;50.996;4.754;2023-02-28T08:04:44;10.70;;;8.83;;
8861;SDS011;4799;50.996;4.754;2023-02-28T08:07:12;8.80;;;8.00;;
8861;SDS011;4799;50.996;4.754;2023-02-28T08:09:42;9.60;;;7.93;;
8861;SDS011;4799;50.996;4.754;2023-02-28T08:12:10;8.33;;;7.53;;
8861;SDS011;4799;50.996;4.754;2023-02-28T08:14:36;9.17;;;7.90;;
8861;SDS011;4799;50.996;4.754;2023-02-28T08:17:03;8.43;;;7.43;;
8861;SDS011;4799;50.996;4.754;2023-02-28T08:19:29;8.40;;;6.97;;
8861;SDS011;4799;50.996;4.754;2023-02-28T08:21:55;7.10;;;6.37;;
8861;SDS011;4799;50.996;4.754;2023-02-28T08:24:21;6.40;;;5.47;;
8861;SDS011;4799;50.996;4.754;2023-02-28T08:26:46;6.03;;;5.40;;
8861;SDS011;4799;50.996;4.754;2023-02-28T08:29:12;6.30;;;5.70;;
8861;SDS011;4799;50.996;4.754;2023-02-28T08:31:38;6.10;;;5.50;;
8861;SDS011;4799;50.996;4.754;2023-02-28T08:34:07;6.27;;;5.40;;
8861;SDS011;4799;50.996;4.754;2023-02-28T08:36:35;6.33;;;5.60;;
8861;SDS011;4799;50.996;4.754;2023-02-28T08:39:01;6.07;;;5.47;;
8861;SDS011;4799;50.996;4.754;2023-02-28T08:41:27;6.10;;;5.50;;
8861;SDS011;4799;50.996;4.754;2023-02-28T08:43:53;6.60;;;5.20;;
8861;SDS011;4799;50.996;4.754;2023-02-28T08:46:19;5.70;;;5.10;;
8861;SDS011;4799;50.996;4.754;2023-02-28T08:48:45;5.27;;;4.60;;
8861;SDS011;4799;50.996;4.754;2023-02-28T08:51:12;5.50;;;4.77;;
8861;SDS011;4799;50.996;4.754;2023-02-28T08:53:41;5.77;;;5.17;;
8861;SDS011;4799;50.996;4.754;2023-02-28T08:56:13;5.33;;;4.40;;
8861;SDS011;4799;50.996;4.754;2023-02-28T08:58:41;5.50;;;4.90;;
8861;SDS011;4799;50.996;4.754;2023-02-28T09:01:09;4.97;;;4.57;;
8861;SDS011;4799;50.996;4.754;2023-02-28T09:03:34;6.40;;;4.90;;
8861;SDS011;4799;50.996;4.754;2023-02-28T09:06:00;5.87;;;4.93;;
8861;SDS011;4799;50.996;4.754;2023-02-28T09:08:29;5.13;;;4.63;;
8861;SDS011;4799;50.996;4.754;2023-02-28T09:10:55;5.23;;;4.57;;
8861;SDS011;4799;50.996;4.754;2023-02-28T09:13:23;4.77;;;4.30;;
8861;SDS011;4799;50.996;4.754;2023-02-28T09:15:50;5.80;;;4.53;;
8861;SDS011;4799;50.996;4.754;2023-02-28T09:18:16;5.40;;;4.53;;
8861;SDS011;4799;50.996;4.754;2023-02-28T09:20:42;6.03;;;4.60;;
8861;SDS011;4799;50.996;4.754;2023-02-28T09:23:09;4.50;;;4.10;;
8861;SDS011;4799;50.996;4.754;2023-02-28T09:25:35;4.70;;;4.30;;
8861;SDS011;4799;50.996;4.754;2023-02-28T09:28:02;4.40;;;4.00;;
8861;SDS011;4799;50.996;4.754;2023-02-28T09:30:29;4.90;;;4.40;;
8861;SDS011;4799;50.996;4.754;2023-02-28T09:32:55;5.23;;;4.50;;
8861;SDS011;4799;50.996;4.754;2023-02-28T09:35:22;4.60;;;4.20;;
8861;SDS011;4799;50.996;4.754;2023-02-28T09:37:49;4.43;;;3.93;;
8861;SDS011;4799;50.996;4.754;2023-02-28T09:40:20;3.53;;;3.23;;
8861;SDS011;4799;50.996;4.754;2023-02-28T09:42:49;3.90;;;3.50;;
8861;SDS011;4799;50.996;4.754;2023-02-28T09:45:24;4.47;;;3.60;;
8861;SDS011;4799;50.996;4.754;2023-02-28T09:48:06;3.10;;;2.80;;
8861;SDS011;4799;50.996;4.754;2023-02-28T09:50:46;3.40;;;2.90;;
8861;SDS011;4799;50.996;4.754;2023-02-28T09:53:26;3.63;;;3.10;;
8861;SDS011;4799;50.996;4.754;2023-02-28T09:55:58;4.23;;;2.80;;
8861;SDS011;4799;50.996;4.754;2023-02-28T10:03:45;3.40;;;2.83;;
8861;SDS011;4799;50.996;4.754;2023-02-28T10:06:21;3.63;;;3.27;;
8861;SDS011;4799;50.996;4.754;2023-02-28T10:09:00;3.27;;;2.97;;
8861;SDS011;4799;50.996;4.754;2023-02-28T10:11:38;2.80;;;2.60;;
8861;SDS011;4799;50.996;4.754;2023-02-28T10:14:07;3.20;;;2.90;;
8861;SDS011;4799;50.996;4.754;2023-02-28T10:16:58;3.40;;;3.10;;
8861;SDS011;4799;50.996;4.754;2023-02-28T10:19:30;4.33;;;3.10;;
8861;SDS011;4799;50.996;4.754;2023-02-28T10:22:15;2.80;;;2.50;;
8861;SDS011;4799;50.996;4.754;2023-02-28T10:24:52;2.70;;;2.13;;
8861;SDS011;4799;50.996;4.754;2023-02-28T10:29:46;2.80;;;2.50;;
8861;SDS011;4799;50.996;4.754;2023-02-28T10:32:15;2.70;;;2.50;;
8861;SDS011;4799;50.996;4.754;2023-02-28T10:34:43;3.77;;;3.47;;
8861;SDS011;4799;50.996;4.754;2023-02-28T10:37:10;3.83;;;2.60;;
8861;SDS011;4799;50.996;4.754;2023-02-28T10:39:42;3.40;;;2.60;;
8861;SDS011;4799;50.996;4.754;2023-02-28T10:42:23;2.80;;;2.60;;
8861;SDS011;4799;50.996;4.754;2023-02-28T10:45:13;2.77;;;2.10;;
8861;SDS011;4799;50.996;4.754;2023-02-28T10:53:33;5.17;;;3.10;;
8861;SDS011;4799;50.996;4.754;2023-02-28T11:01:15;2.53;;;2.33;;
8861;SDS011;4799;50.996;4.754;2023-02-28T11:03:41;2.47;;;2.20;;
8861;SDS011;4799;50.996;4.754;2023-02-28T11:06:08;2.40;;;2.20;;
8861;SDS011;4799;50.996;4.754;2023-02-28T11:08:47;2.20;;;2.00;;
8861;SDS011;4799;50.996;4.754;2023-02-28T11:11:28;4.27;;;2.30;;
8861;SDS011;4799;50.996;4.754;2023-02-28T11:13:58;3.03;;;2.30;;
8861;SDS011;4799;50.996;4.754;2023-02-28T11:16:31;3.13;;;2.30;;
8861;SDS011;4799;50.996;4.754;2023-02-28T11:19:03;3.10;;;2.20;;
8861;SDS011;4799;50.996;4.754;2023-02-28T11:21:33;2.87;;;2.40;;
8861;SDS011;4799;50.996;4.754;2023-02-28T11:24:06;3.63;;;2.57;;
8861;SDS011;4799;50.996;4.754;2023-02-28T11:26:48;2.57;;;2.37;;
8861;SDS011;4799;50.996;4.754;2023-02-28T11:32:00;2.93;;;2.57;;
8861;SDS011;4799;50.996;4.754;2023-02-28T11:34:30;3.17;;;2.47;;
8861;SDS011;4799;50.996;4.754;2023-02-28T11:36:57;2.70;;;2.30;;
8861;SDS011;4799;50.996;4.754;2023-02-28T11:39:24;4.20;;;3.07;;
8861;SDS011;4799;50.996;4.754;2023-02-28T11:44:43;3.17;;;2.40;;
8861;SDS011;4799;50.996;4.754;2023-02-28T11:47:25;2.63;;;2.33;;
8861;SDS011;4799;50.996;4.754;2023-02-28T11:52:56;3.10;;;2.60;;
8861;SDS011;4799;50.996;4.754;2023-02-28T11:55:26;2.63;;;2.43;;
8861;SDS011;4799;50.996;4.754;2023-02-28T11:58:02;2.53;;;2.33;;
8861;SDS011;4799;50.996;4.754;2023-02-28T12:05:49;3.00;;;2.23;;
8861;SDS011;4799;50.996;4.754;2023-02-28T12:08:47;4.77;;;2.47;;
8861;SDS011;4799;50.996;4.754;2023-02-28T12:11:34;2.67;;;2.40;;
8861;SDS011;4799;50.996;4.754;2023-02-28T12:19:48;4.33;;;2.33;;
8861;SDS011;4799;50.996;4.754;2023-02-28T12:22:30;2.57;;;2.30;;
8861;SDS011;4799;50.996;4.754;2023-02-28T12:27:40;2.60;;;2.40;;
8861;SDS011;4799;50.996;4.754;2023-02-28T12:32:43;3.20;;;2.47;;
8861;SDS011;4799;50.996;4.754;2023-02-28T12:35:13;3.53;;;2.40;;
8861;SDS011;4799;50.996;4.754;2023-02-28T12:37:47;3.97;;;2.70;;
8861;SDS011;4799;50.996;4.754;2023-02-28T12:40:30;2.70;;;2.40;;
8861;SDS011;4799;50.996;4.754;2023-02-28T12:43:07;2.70;;;2.37;;
8861;SDS011;4799;50.996;4.754;2023-02-28T12:48:13;3.00;;;2.70;;
8861;SDS011;4799;50.996;4.754;2023-02-28T12:50:44;3.13;;;2.70;;
8861;SDS011;4799;50.996;4.754;2023-02-28T12:53:18;2.60;;;2.40;;
8861;SDS011;4799;50.996;4.754;2023-02-28T12:55:55;2.63;;;2.43;;
8861;SDS011;4799;50.996;4.754;2023-02-28T12:58:34;3.33;;;3.03;;
8861;SDS011;4799;50.996;4.754;2023-02-28T13:09:16;3.80;;;2.53;;
8861;SDS011;4799;50.996;4.754;2023-02-28T13:11:46;3.10;;;2.80;;
8861;SDS011;4799;50.996;4.754;2023-02-28T13:19:28;3.20;;;2.63;;
8861;SDS011;4799;50.996;4.754;2023-02-28T13:21:56;3.00;;;2.60;;
8861;SDS011;4799;50.996;4.754;2023-02-28T13:34:39;3.20;;;2.90;;
8861;SDS011;4799;50.996;4.754;2023-02-28T13:42:51;3.70;;;3.20;;
8861;SDS011;4799;50.996;4.754;2023-02-28T13:58:43;3.70;;;3.07;;
8861;SDS011;4799;50.996;4.754;2023-02-28T14:06:40;3.87;;;3.10;;
8861;SDS011;4799;50.996;4.754;2023-02-28T14:09:25;3.83;;;3.03;;
8861;SDS011;4799;50.996;4.754;2023-02-28T14:15:28;3.33;;;3.03;;
8861;SDS011;4799;50.996;4.754;2023-02-28T14:18:02;3.27;;;2.97;;
8861;SDS011;4799;50.996;4.754;2023-02-28T14:20:38;5.30;;;3.10;;
8861;SDS011;4799;50.996;4.754;2023-02-28T14:23:19;4.37;;;3.20;;
8861;SDS011;4799;50.996;4.754;2023-02-28T14:32:18;3.30;;;3.00;;
8861;SDS011;4799;50.996;4.754;2023-02-28T14:37:50;3.10;;;2.90;;
8861;SDS011;4799;50.996;4.754;2023-02-28T14:40:25;2.97;;;2.77;;
8861;SDS011;4799;50.996;4.754;2023-02-28T14:42:59;3.37;;;3.07;;
8861;SDS011;4799;50.996;4.754;2023-02-28T14:45:27;3.40;;;2.80;;
8861;SDS011;4799;50.996;4.754;2023-02-28T14:47:55;3.73;;;3.10;;
8861;SDS011;4799;50.996;4.754;2023-02-28T14:50:33;3.20;;;2.90;;
8861;SDS011;4799;50.996;4.754;2023-02-28T14:53:01;3.13;;;2.83;;
8861;SDS011;4799;50.996;4.754;2023-02-28T14:55:29;3.27;;;2.90;;
8861;SDS011;4799;50.996;4.754;2023-02-28T14:58:00;3.13;;;2.60;;
8861;SDS011;4799;50.996;4.754;2023-02-28T15:00:30;3.50;;;3.13;;
8861;SDS011;4799;50.996;4.754;2023-02-28T15:02:58;3.47;;;3.17;;
8861;SDS011;4799;50.996;4.754;2023-02-28T15:08:14;3.40;;;2.90;;
8861;SDS011;4799;50.996;4.754;2023-02-28T15:10:51;3.40;;;3.00;;
8861;SDS011;4799;50.996;4.754;2023-02-28T15:13:18;4.33;;;3.50;;
8861;SDS011;4799;50.996;4.754;2023-02-28T15:18:40;3.50;;;3.10;;
8861;SDS011;4799;50.996;4.754;2023-02-28T15:21:12;4.27;;;3.40;;
8861;SDS011;4799;50.996;4.754;2023-02-28T15:26:31;3.60;;;3.30;;
8861;SDS011;4799;50.996;4.754;2023-02-28T15:29:00;3.63;;;3.27;;
8861;SDS011;4799;50.996;4.754;2023-02-28T15:31:35;3.20;;;2.90;;
8861;SDS011;4799;50.996;4.754;2023-02-28T15:34:06;3.40;;;3.10;;
8861;SDS011;4799;50.996;4.754;2023-02-28T15:36:42;3.50;;;3.20;;
8861;SDS011;4799;50.996;4.754;2023-02-28T15:39:18;3.97;;;3.03;;
8861;SDS011;4799;50.996;4.754;2023-02-28T15:41:47;3.93;;;3.17;;
8861;SDS011;4799;50.996;4.754;2023-02-28T15:44:34;4.00;;;2.80;;
8861;SDS011;4799;50.996;4.754;2023-02-28T15:47:04;4.80;;;3.10;;
8861;SDS011;4799;50.996;4.754;2023-02-28T15:49:49;3.83;;;3.40;;
8861;SDS011;4799;50.996;4.754;2023-02-28T15:52:16;3.83;;;3.43;;
8861;SDS011;4799;50.996;4.754;2023-02-28T15:54:53;4.33;;;3.20;;
8861;SDS011;4799;50.996;4.754;2023-02-28T15:57:20;6.97;;;2.93;;
8861;SDS011;4799;50.996;4.754;2023-02-28T15:59:49;4.33;;;3.17;;
8861;SDS011;4799;50.996;4.754;2023-02-28T16:02:29;4.13;;;3.17;;
8861;SDS011;4799;50.996;4.754;2023-02-28T16:05:40;3.57;;;3.27;;
8861;SDS011;4799;50.996;4.754;2023-02-28T16:07:55;5.50;;;3.53;;
8861;SDS011;4799;50.996;4.754;2023-02-28T16:10:22;4.20;;;3.33;;
8861;SDS011;4799;50.996;4.754;2023-02-28T16:12:52;5.20;;;3.43;;
8861;SDS011;4799;50.996;4.754;2023-02-28T16:15:24;3.33;;;3.03;;
8861;SDS011;4799;50.996;4.754;2023-02-28T16:17:51;4.27;;;3.27;;
8861;SDS011;4799;50.996;4.754;2023-02-28T16:20:26;5.13;;;3.13;;
8861;SDS011;4799;50.996;4.754;2023-02-28T16:22:54;3.73;;;2.97;;
8861;SDS011;4799;50.996;4.754;2023-02-28T16:25:22;4.67;;;3.13;;
8861;SDS011;4799;50.996;4.754;2023-02-28T16:27:52;4.03;;;3.20;;
8861;SDS011;4799;50.996;4.754;2023-02-28T16:30:21;4.10;;;3.00;;
8861;SDS011;4799;50.996;4.754;2023-02-28T16:32:49;3.67;;;3.37;;
8861;SDS011;4799;50.996;4.754;2023-02-28T16:35:16;4.60;;;3.93;;
8861;SDS011;4799;50.996;4.754;2023-02-28T16:37:43;3.87;;;3.47;;
8861;SDS011;4799;50.996;4.754;2023-02-28T16:40:16;4.90;;;4.27;;
8861;SDS011;4799;50.996;4.754;2023-02-28T16:42:53;5.47;;;4.23;;
8861;SDS011;4799;50.996;4.754;2023-02-28T16:45:27;4.87;;;3.70;;
8861;SDS011;4799;50.996;4.754;2023-02-28T16:47:54;4.10;;;3.63;;
8861;SDS011;4799;50.996;4.754;2023-02-28T16:50:22;4.23;;;3.83;;
8861;SDS011;4799;50.996;4.754;2023-02-28T16:52:49;3.93;;;3.50;;
8861;SDS011;4799;50.996;4.754;2023-02-28T16:55:17;4.27;;;3.90;;
8861;SDS011;4799;50.996;4.754;2023-02-28T16:57:44;3.73;;;3.33;;
8861;SDS011;4799;50.996;4.754;2023-02-28T17:00:15;3.53;;;3.23;;
8861;SDS011;4799;50.996;4.754;2023-02-28T17:02:41;4.03;;;3.60;;
8861;SDS011;4799;50.996;4.754;2023-02-28T17:05:07;4.60;;;3.77;;
8861;SDS011;4799;50.996;4.754;2023-02-28T17:07:33;4.20;;;3.10;;
8861;SDS011;4799;50.996;4.754;2023-02-28T17:09:59;4.73;;;3.83;;
8861;SDS011;4799;50.996;4.754;2023-02-28T17:12:33;4.23;;;3.40;;
8861;SDS011;4799;50.996;4.754;2023-02-28T17:14:59;4.03;;;3.53;;
8861;SDS011;4799;50.996;4.754;2023-02-28T17:17:24;4.93;;;3.80;;
8861;SDS011;4799;50.996;4.754;2023-02-28T17:19:50;4.20;;;3.30;;
8861;SDS011;4799;50.996;4.754;2023-02-28T17:22:16;6.00;;;4.13;;
8861;SDS011;4799;50.996;4.754;2023-02-28T17:24:42;4.13;;;3.73;;
8861;SDS011;4799;50.996;4.754;2023-02-28T17:27:10;6.30;;;4.03;;
8861;SDS011;4799;50.996;4.754;2023-02-28T17:29:37;5.00;;;4.10;;
8861;SDS011;4799;50.996;4.754;2023-02-28T17:32:03;3.63;;;3.33;;
8861;SDS011;4799;50.996;4.754;2023-02-28T17:34:29;4.87;;;3.80;;
8861;SDS011;4799;50.996;4.754;2023-02-28T17:36:56;4.03;;;3.60;;
8861;SDS011;4799;50.996;4.754;2023-02-28T17:39:22;3.97;;;3.60;;
8861;SDS011;4799;50.996;4.754;2023-02-28T17:41:54;4.10;;;3.60;;
8861;SDS011;4799;50.996;4.754;2023-02-28T17:44:21;4.67;;;4.20;;
8861;SDS011;4799;50.996;4.754;2023-02-28T17:46:51;4.63;;;4.17;;
8861;SDS011;4799;50.996;4.754;2023-02-28T17:49:19;5.20;;;4.53;;
8861;SDS011;4799;50.996;4.754;2023-02-28T17:51:45;5.23;;;4.13;;
8861;SDS011;4799;50.996;4.754;2023-02-28T17:54:12;4.83;;;4.03;;
8861;SDS011;4799;50.996;4.754;2023-02-28T17:56:39;4.30;;;3.90;;
8861;SDS011;4799;50.996;4.754;2023-02-28T17:59:07;5.63;;;4.37;;